FDX258 TJBQ-MDSD
Flight info
| Callsign | FDX258 |
|---|---|
| Flight time | 0h 35m |
| Altitude | 18000 |
| Route | ANTEX B520 GOSUB GOSUB4G |
| Aircraft | B763/H-SDE3FGHIM3RWXY/LB1 |
Departure
| Time | 2026-04-26 01:59 |
|---|---|
| Airport | Rafael Hernández International Airport (TJBQ) |
Arrival
| Time | 2026-04-26 02:34 |
|---|---|
| Airport | Las Américas International Airport (MDSD) |
| Time | Latitude | Longitude | Altitude | Speed | Heading |
|---|---|---|---|---|---|
| 2026-04-26 01:19 | 18.49537 | -67.13384 | 228 ft | 0 kts | 341° |
| 2026-04-26 01:43 | 18.49536 | -67.13384 | 228 ft | 0 kts | 341° |
| 2026-04-26 01:43 | 18.49524 | -67.13379 | 228 ft | 2 kts | 328° |
| 2026-04-26 01:43 | 18.49512 | -67.13369 | 228 ft | 2 kts | 314° |
| 2026-04-26 01:44 | 18.49503 | -67.13357 | 228 ft | 2 kts | 300° |
| 2026-04-26 01:44 | 18.49497 | -67.13343 | 228 ft | 2 kts | 285° |
| 2026-04-26 01:44 | 18.49494 | -67.13327 | 228 ft | 2 kts | 271° |
| 2026-04-26 01:44 | 18.49495 | -67.13312 | 228 ft | 2 kts | 257° |
| 2026-04-26 01:45 | 18.49497 | -67.13304 | 228 ft | 0 kts | 251° |
| 2026-04-26 01:51 | 18.49497 | -67.13306 | 228 ft | 1 kts | 251° |
| 2026-04-26 01:51 | 18.49490 | -67.13324 | 228 ft | 3 kts | 251° |
| 2026-04-26 01:52 | 18.49480 | -67.13356 | 229 ft | 5 kts | 251° |
| 2026-04-26 01:52 | 18.49466 | -67.13402 | 229 ft | 7 kts | 251° |
| 2026-04-26 01:52 | 18.49449 | -67.13454 | 229 ft | 7 kts | 251° |
| 2026-04-26 01:52 | 18.49429 | -67.13515 | 228 ft | 9 kts | 251° |
| 2026-04-26 01:53 | 18.49409 | -67.13583 | 228 ft | 9 kts | 253° |
| 2026-04-26 01:53 | 18.49390 | -67.13654 | 228 ft | 10 kts | 254° |
| 2026-04-26 01:53 | 18.49366 | -67.13737 | 229 ft | 12 kts | 252° |
| 2026-04-26 01:53 | 18.49340 | -67.13824 | 231 ft | 12 kts | 252° |
| 2026-04-26 01:54 | 18.49313 | -67.13915 | 233 ft | 13 kts | 252° |
| 2026-04-26 01:54 | 18.49285 | -67.14008 | 236 ft | 13 kts | 253° |
| 2026-04-26 01:54 | 18.49258 | -67.14104 | 238 ft | 14 kts | 253° |
| 2026-04-26 01:54 | 18.49228 | -67.14211 | 238 ft | 15 kts | 254° |
| 2026-04-26 01:55 | 18.49196 | -67.14323 | 241 ft | 16 kts | 251° |
| 2026-04-26 01:55 | 18.49159 | -67.14440 | 243 ft | 17 kts | 252° |
| 2026-04-26 01:55 | 18.49157 | -67.14448 | 243 ft | 17 kts | 252° |
| 2026-04-26 01:56 | 18.49152 | -67.14462 | 243 ft | 17 kts | 252° |
| 2026-04-26 01:56 | 18.49119 | -67.14559 | 245 ft | 7 kts | 250° |
| 2026-04-26 01:56 | 18.49107 | -67.14571 | 245 ft | 1 kts | 201° |
| 2026-04-26 01:56 | 18.49103 | -67.14572 | 245 ft | 0 kts | 189° |
| 2026-04-26 01:57 | 18.49096 | -67.14573 | 245 ft | 2 kts | 184° |
| 2026-04-26 01:57 | 18.49067 | -67.14567 | 246 ft | 6 kts | 165° |
| 2026-04-26 01:57 | 18.49022 | -67.14546 | 247 ft | 7 kts | 135° |
| 2026-04-26 01:57 | 18.49018 | -67.14495 | 247 ft | 3 kts | 73° |
| 2026-04-26 01:58 | 18.49019 | -67.14494 | 247 ft | 0 kts | 73° |
| 2026-04-26 01:58 | 18.49049 | -67.14391 | 244 ft | 39 kts | 72° |
| 2026-04-26 01:58 | 18.49190 | -67.13928 | 236 ft | 92 kts | 72° |
| 2026-04-26 01:59 | 18.49434 | -67.13120 | 230 ft | 135 kts | 72° |
| 2026-04-26 01:59 | 18.49762 | -67.12042 | 244 ft | 173 kts | 72° |
| 2026-04-26 01:59 | 18.50129 | -67.10795 | 523 ft | 181 kts | 73° |
| 2026-04-26 01:59 | 18.50521 | -67.09557 | 925 ft | 180 kts | 73° |
| 2026-04-26 02:00 | 18.51027 | -67.08358 | 1257 ft | 184 kts | 49° |
| 2026-04-26 02:00 | 18.52166 | -67.07707 | 1417 ft | 191 kts | 4° |
| 2026-04-26 02:00 | 18.53454 | -67.07998 | 1611 ft | 197 kts | 327° |
| 2026-04-26 02:00 | 18.54384 | -67.09135 | 1588 ft | 217 kts | 289° |
| 2026-04-26 02:01 | 18.54737 | -67.10706 | 1798 ft | 224 kts | 277° |
| 2026-04-26 02:01 | 18.54753 | -67.12372 | 1912 ft | 236 kts | 261° |
| 2026-04-26 02:01 | 18.54522 | -67.14148 | 2108 ft | 252 kts | 261° |
| 2026-04-26 02:01 | 18.54303 | -67.16015 | 2640 ft | 263 kts | 262° |
| 2026-04-26 02:02 | 18.54115 | -67.17929 | 3341 ft | 267 kts | 264° |
| 2026-04-26 02:02 | 18.53960 | -67.19873 | 4074 ft | 271 kts | 264° |
| 2026-04-26 02:02 | 18.53813 | -67.21849 | 4843 ft | 272 kts | 265° |
| 2026-04-26 02:02 | 18.53666 | -67.23829 | 5654 ft | 272 kts | 265° |
| 2026-04-26 02:03 | 18.53519 | -67.25808 | 6332 ft | 276 kts | 265° |
| 2026-04-26 02:03 | 18.53373 | -67.27805 | 7121 ft | 276 kts | 265° |
| 2026-04-26 02:03 | 18.53224 | -67.29823 | 7802 ft | 280 kts | 265° |
| 2026-04-26 02:03 | 18.53072 | -67.31886 | 8483 ft | 283 kts | 265° |
| 2026-04-26 02:04 | 18.52920 | -67.33944 | 9201 ft | 285 kts | 265° |
| 2026-04-26 02:04 | 18.52765 | -67.36039 | 9848 ft | 288 kts | 265° |
| 2026-04-26 02:04 | 18.52611 | -67.38126 | 10460 ft | 293 kts | 265° |
| 2026-04-26 02:04 | 18.52447 | -67.40333 | 10733 ft | 311 kts | 265° |
| 2026-04-26 02:05 | 18.52274 | -67.42651 | 11046 ft | 327 kts | 265° |
| 2026-04-26 02:05 | 18.52091 | -67.45113 | 11367 ft | 344 kts | 265° |
| 2026-04-26 02:05 | 18.51901 | -67.47663 | 11623 ft | 362 kts | 265° |
| 2026-04-26 02:05 | 18.51700 | -67.50347 | 11919 ft | 378 kts | 265° |
| 2026-04-26 02:06 | 18.51494 | -67.53111 | 12712 ft | 378 kts | 265° |
| 2026-04-26 02:06 | 18.51284 | -67.55901 | 13413 ft | 381 kts | 265° |
| 2026-04-26 02:06 | 18.51077 | -67.58662 | 14004 ft | 386 kts | 265° |
| 2026-04-26 02:06 | 18.50863 | -67.61502 | 14595 ft | 390 kts | 265° |
| 2026-04-26 02:07 | 18.50650 | -67.64329 | 15305 ft | 391 kts | 265° |
| 2026-04-26 02:07 | 18.50433 | -67.67200 | 15935 ft | 393 kts | 264° |
| 2026-04-26 02:07 | 18.50215 | -67.70058 | 16422 ft | 399 kts | 264° |
| 2026-04-26 02:07 | 18.49995 | -67.72979 | 17136 ft | 401 kts | 264° |
| 2026-04-26 02:08 | 18.49771 | -67.75912 | 17828 ft | 403 kts | 264° |
| 2026-04-26 02:08 | 18.49545 | -67.78878 | 17961 ft | 416 kts | 264° |
| 2026-04-26 02:08 | 18.49309 | -67.81970 | 17967 ft | 431 kts | 264° |
| 2026-04-26 02:08 | 18.49065 | -67.85139 | 17957 ft | 434 kts | 264° |
| 2026-04-26 02:09 | 18.48823 | -67.88300 | 17956 ft | 431 kts | 264° |
| 2026-04-26 02:09 | 18.48585 | -67.91403 | 17958 ft | 430 kts | 264° |
| 2026-04-26 02:09 | 18.48345 | -67.94529 | 17959 ft | 430 kts | 264° |
| 2026-04-26 02:09 | 18.48102 | -67.97665 | 17953 ft | 429 kts | 264° |
| 2026-04-26 02:10 | 18.47883 | -68.00783 | 17956 ft | 427 kts | 266° |
| 2026-04-26 02:10 | 18.47838 | -68.03885 | 17951 ft | 411 kts | 268° |
| 2026-04-26 02:10 | 18.47773 | -68.06840 | 17947 ft | 399 kts | 268° |
| 2026-04-26 02:10 | 18.47720 | -68.09734 | 17956 ft | 399 kts | 268° |
| 2026-04-26 02:11 | 18.47657 | -68.12684 | 17962 ft | 404 kts | 268° |
| 2026-04-26 02:11 | 18.47596 | -68.15643 | 17963 ft | 407 kts | 268° |
| 2026-04-26 02:11 | 18.47531 | -68.18617 | 17959 ft | 406 kts | 268° |
| 2026-04-26 02:11 | 18.47470 | -68.21571 | 17957 ft | 405 kts | 268° |
| 2026-04-26 02:12 | 18.47404 | -68.24546 | 17963 ft | 405 kts | 268° |
| 2026-04-26 02:12 | 18.47341 | -68.27485 | 17957 ft | 405 kts | 268° |
| 2026-04-26 02:12 | 18.47276 | -68.30446 | 17957 ft | 405 kts | 268° |
| 2026-04-26 02:12 | 18.47210 | -68.33416 | 17957 ft | 405 kts | 268° |
| 2026-04-26 02:13 | 18.47143 | -68.36389 | 17954 ft | 405 kts | 267° |
| 2026-04-26 02:13 | 18.47077 | -68.39337 | 17953 ft | 405 kts | 268° |
| 2026-04-26 02:13 | 18.47010 | -68.42287 | 17952 ft | 404 kts | 267° |
| 2026-04-26 02:13 | 18.46943 | -68.45228 | 17950 ft | 404 kts | 268° |
| 2026-04-26 02:14 | 18.46875 | -68.48184 | 17954 ft | 404 kts | 268° |
| 2026-04-26 02:14 | 18.46806 | -68.51157 | 17950 ft | 404 kts | 268° |
| 2026-04-26 02:14 | 18.46738 | -68.54109 | 17958 ft | 404 kts | 268° |
| 2026-04-26 02:14 | 18.46669 | -68.57043 | 17939 ft | 398 kts | 268° |
| 2026-04-26 02:15 | 18.46601 | -68.59933 | 17414 ft | 398 kts | 268° |
| 2026-04-26 02:15 | 18.46531 | -68.62869 | 16775 ft | 395 kts | 268° |
| 2026-04-26 02:15 | 18.46464 | -68.65699 | 16656 ft | 378 kts | 267° |
| 2026-04-26 02:15 | 18.46400 | -68.68389 | 16547 ft | 360 kts | 267° |
| 2026-04-26 02:16 | 18.46338 | -68.70959 | 16336 ft | 344 kts | 267° |
| 2026-04-26 02:16 | 18.46279 | -68.73409 | 16233 ft | 326 kts | 267° |
| 2026-04-26 02:16 | 18.46223 | -68.75718 | 16108 ft | 310 kts | 267° |
| 2026-04-26 02:16 | 18.46168 | -68.77958 | 15697 ft | 307 kts | 267° |
| 2026-04-26 02:17 | 18.46102 | -68.80207 | 15225 ft | 306 kts | 266° |
| 2026-04-26 02:17 | 18.46024 | -68.82417 | 14935 ft | 303 kts | 267° |
| 2026-04-26 02:17 | 18.45948 | -68.84631 | 14654 ft | 303 kts | 267° |
| 2026-04-26 02:17 | 18.45870 | -68.86868 | 14390 ft | 306 kts | 267° |
| 2026-04-26 02:18 | 18.45792 | -68.89107 | 14082 ft | 302 kts | 267° |
| 2026-04-26 02:18 | 18.45715 | -68.91302 | 13796 ft | 302 kts | 267° |
| 2026-04-26 02:18 | 18.45639 | -68.93495 | 13510 ft | 299 kts | 267° |
| 2026-04-26 02:18 | 18.45561 | -68.95685 | 13238 ft | 298 kts | 268° |
| 2026-04-26 02:19 | 18.45485 | -68.97849 | 12956 ft | 297 kts | 267° |
| 2026-04-26 02:19 | 18.45409 | -69.00012 | 12681 ft | 297 kts | 267° |
| 2026-04-26 02:19 | 18.45331 | -69.02200 | 12413 ft | 296 kts | 267° |
| 2026-04-26 02:19 | 18.45254 | -69.04362 | 12133 ft | 295 kts | 268° |
| 2026-04-26 02:20 | 18.45178 | -69.06500 | 11872 ft | 295 kts | 267° |
| 2026-04-26 02:20 | 18.45101 | -69.08649 | 11597 ft | 292 kts | 267° |
| 2026-04-26 02:20 | 18.45024 | -69.10786 | 11351 ft | 292 kts | 267° |
| 2026-04-26 02:20 | 18.44949 | -69.12866 | 11086 ft | 292 kts | 267° |
| 2026-04-26 02:21 | 18.44872 | -69.14992 | 10828 ft | 293 kts | 267° |
| 2026-04-26 02:21 | 18.44795 | -69.17130 | 10556 ft | 292 kts | 267° |
| 2026-04-26 02:21 | 18.44717 | -69.19261 | 10319 ft | 289 kts | 267° |
| 2026-04-26 02:21 | 18.44642 | -69.21326 | 10250 ft | 275 kts | 267° |
| 2026-04-26 02:22 | 18.44571 | -69.23287 | 10176 ft | 262 kts | 267° |
| 2026-04-26 02:22 | 18.44502 | -69.25166 | 10143 ft | 253 kts | 267° |
| 2026-04-26 02:22 | 18.44448 | -69.27015 | 10158 ft | 254 kts | 268° |
| 2026-04-26 02:22 | 18.44418 | -69.28900 | 9926 ft | 264 kts | 268° |
| 2026-04-26 02:23 | 18.44386 | -69.30818 | 9676 ft | 263 kts | 268° |
| 2026-04-26 02:23 | 18.44354 | -69.32740 | 9430 ft | 261 kts | 268° |
| 2026-04-26 02:23 | 18.44321 | -69.34636 | 9202 ft | 258 kts | 268° |
| 2026-04-26 02:23 | 18.44290 | -69.36515 | 8956 ft | 256 kts | 268° |
| 2026-04-26 02:24 | 18.44257 | -69.38404 | 8699 ft | 258 kts | 268° |
| 2026-04-26 02:24 | 18.44224 | -69.40289 | 8510 ft | 257 kts | 269° |
| 2026-04-26 02:24 | 18.44208 | -69.42172 | 8280 ft | 256 kts | 275° |
| 2026-04-26 02:24 | 18.44729 | -69.43935 | 8113 ft | 257 kts | 304° |
| 2026-04-26 02:25 | 18.45986 | -69.45310 | 7934 ft | 260 kts | 320° |
| 2026-04-26 02:25 | 18.47358 | -69.46526 | 7665 ft | 259 kts | 319° |
| 2026-04-26 02:25 | 18.48738 | -69.47739 | 7390 ft | 259 kts | 320° |
| 2026-04-26 02:25 | 18.50134 | -69.48940 | 7121 ft | 258 kts | 321° |
| 2026-04-26 02:26 | 18.51533 | -69.50137 | 6854 ft | 256 kts | 320° |
| 2026-04-26 02:26 | 18.52917 | -69.51313 | 6606 ft | 255 kts | 322° |
| 2026-04-26 02:26 | 18.54318 | -69.52501 | 6363 ft | 256 kts | 322° |
| 2026-04-26 02:26 | 18.55700 | -69.53667 | 6126 ft | 256 kts | 322° |
| 2026-04-26 02:27 | 18.57095 | -69.54845 | 5883 ft | 255 kts | 321° |
| 2026-04-26 02:27 | 18.58483 | -69.56018 | 5655 ft | 254 kts | 322° |
| 2026-04-26 02:27 | 18.59859 | -69.57181 | 5431 ft | 252 kts | 322° |
| 2026-04-26 02:27 | 18.61219 | -69.58329 | 5206 ft | 250 kts | 322° |
| 2026-04-26 02:28 | 18.62587 | -69.59484 | 4954 ft | 250 kts | 322° |
| 2026-04-26 02:28 | 18.63928 | -69.60619 | 4686 ft | 249 kts | 322° |
| 2026-04-26 02:28 | 18.65095 | -69.61961 | 4446 ft | 248 kts | 298° |
| 2026-04-26 02:28 | 18.65477 | -69.63711 | 4196 ft | 246 kts | 266° |
| 2026-04-26 02:29 | 18.64969 | -69.65385 | 3988 ft | 240 kts | 240° |
| 2026-04-26 02:29 | 18.64110 | -69.66866 | 3784 ft | 233 kts | 238° |
| 2026-04-26 02:29 | 18.63256 | -69.68303 | 3594 ft | 226 kts | 236° |
| 2026-04-26 02:29 | 18.62413 | -69.69671 | 3391 ft | 218 kts | 236° |
| 2026-04-26 02:30 | 18.61597 | -69.70969 | 3234 ft | 207 kts | 236° |
| 2026-04-26 02:30 | 18.60769 | -69.72145 | 3165 ft | 193 kts | 220° |
| 2026-04-26 02:30 | 18.59567 | -69.72677 | 3126 ft | 196 kts | 181° |
| 2026-04-26 02:30 | 18.58185 | -69.72437 | 2835 ft | 202 kts | 163° |
| 2026-04-26 02:31 | 18.56816 | -69.72025 | 2359 ft | 209 kts | 162° |
| 2026-04-26 02:31 | 18.55443 | -69.71584 | 2041 ft | 194 kts | 161° |
| 2026-04-26 02:31 | 18.54206 | -69.71167 | 1687 ft | 178 kts | 161° |
| 2026-04-26 02:31 | 18.53133 | -69.70793 | 1650 ft | 149 kts | 161° |
| 2026-04-26 02:32 | 18.52193 | -69.70463 | 1698 ft | 144 kts | 161° |
| 2026-04-26 02:32 | 18.51173 | -69.70144 | 1466 ft | 154 kts | 163° |
| 2026-04-26 02:32 | 18.50179 | -69.69792 | 1235 ft | 148 kts | 160° |
| 2026-04-26 02:32 | 18.49187 | -69.69418 | 916 ft | 149 kts | 160° |
| 2026-04-26 02:33 | 18.48221 | -69.69040 | 657 ft | 145 kts | 161° |
| 2026-04-26 02:33 | 18.47285 | -69.68684 | 472 ft | 144 kts | 161° |
| 2026-04-26 02:33 | 18.46329 | -69.68333 | 343 ft | 146 kts | 162° |
| 2026-04-26 02:33 | 18.45342 | -69.67969 | 275 ft | 149 kts | 161° |
| 2026-04-26 02:34 | 18.44359 | -69.67608 | 135 ft | 149 kts | 162° |
| 2026-04-26 02:34 | 18.43395 | -69.67253 | 64 ft | 138 kts | 160° |
| 2026-04-26 02:34 | 18.42747 | -69.67010 | 67 ft | 62 kts | 160° |
| 2026-04-26 02:34 | 18.42431 | -69.66888 | 70 ft | 34 kts | 158° |
| 2026-04-26 02:35 | 18.42306 | -69.66816 | 71 ft | 7 kts | 140° |
| 2026-04-26 02:35 | 18.42275 | -69.66808 | 71 ft | 2 kts | 198° |
| 2026-04-26 02:35 | 18.42264 | -69.66824 | 71 ft | 3 kts | 257° |
| 2026-04-26 02:35 | 18.42283 | -69.66843 | 70 ft | 6 kts | 343° |
| 2026-04-26 02:36 | 18.42343 | -69.66862 | 70 ft | 10 kts | 342° |
| 2026-04-26 02:36 | 18.42420 | -69.66888 | 70 ft | 13 kts | 341° |
| 2026-04-26 02:36 | 18.42524 | -69.66926 | 69 ft | 18 kts | 341° |
| 2026-04-26 02:36 | 18.42659 | -69.66975 | 68 ft | 22 kts | 340° |
| 2026-04-26 02:37 | 18.42813 | -69.67032 | 67 ft | 23 kts | 340° |
| 2026-04-26 02:37 | 18.42927 | -69.67079 | 66 ft | 11 kts | 323° |
| 2026-04-26 02:37 | 18.42952 | -69.67158 | 65 ft | 12 kts | 272° |
| 2026-04-26 02:37 | 18.42961 | -69.67257 | 61 ft | 14 kts | 276° |
| 2026-04-26 02:38 | 18.42974 | -69.67362 | 58 ft | 11 kts | 285° |
| 2026-04-26 02:38 | 18.43026 | -69.67423 | 56 ft | 12 kts | 332° |
| 2026-04-26 02:38 | 18.43106 | -69.67455 | 56 ft | 12 kts | 340° |
| 2026-04-26 02:38 | 18.43191 | -69.67487 | 55 ft | 13 kts | 340° |
| 2026-04-26 02:39 | 18.43281 | -69.67521 | 55 ft | 14 kts | 340° |
| 2026-04-26 02:39 | 18.43380 | -69.67539 | 54 ft | 14 kts | 14° |
| 2026-04-26 02:39 | 18.43473 | -69.67542 | 54 ft | 13 kts | 335° |
| 2026-04-26 02:39 | 18.43560 | -69.67577 | 54 ft | 11 kts | 338° |
| 2026-04-26 02:40 | 18.43626 | -69.67606 | 53 ft | 6 kts | 338° |
| 2026-04-26 02:40 | 18.43648 | -69.67627 | 53 ft | 3 kts | 289° |
| 2026-04-26 02:40 | 18.43643 | -69.67649 | 52 ft | 2 kts | 240° |
| 2026-04-26 02:40 | 18.43633 | -69.67670 | 52 ft | 0 kts | 245° |
| 2026-04-26 02:41 | 18.43630 | -69.67676 | 52 ft | 1 kts | 247° |
| 2026-04-26 02:41 | 18.43630 | -69.67677 | 52 ft | 0 kts | 249° |